createdAt,value
2023-04-18T00:07:10.277Z,9.47
2023-04-18T00:09:38.502Z,9.53
2023-04-18T00:15:50.721Z,9.47
2023-04-18T00:18:18.372Z,9.45
2023-04-18T00:20:47.155Z,9.36
2023-04-18T00:23:15.595Z,9.36
2023-04-18T00:25:44.562Z,9.31
2023-04-18T00:28:12.752Z,9.30
2023-04-18T00:30:41.053Z,9.21
2023-04-18T00:33:12.366Z,9.16
2023-04-18T00:35:40.590Z,9.16
2023-04-18T00:38:09.304Z,9.16
2023-04-18T00:40:41.890Z,9.17
2023-04-18T00:43:10.188Z,9.19
2023-04-18T00:45:41.298Z,9.21
2023-04-18T00:48:10.094Z,9.18
2023-04-18T00:50:38.823Z,9.17
2023-04-18T00:53:10.869Z,9.13
2023-04-18T00:55:38.934Z,9.11
2023-04-18T00:58:07.060Z,9.03
2023-04-18T01:00:34.757Z,8.99
2023-04-18T01:03:03.120Z,8.98
2023-04-18T01:05:31.888Z,8.97
2023-04-18T01:08:01.686Z,9.00
2023-04-18T01:10:30.151Z,8.95
2023-04-18T01:13:18.129Z,8.94
2023-04-18T01:15:46.936Z,8.94
2023-04-18T01:18:18.597Z,8.93
2023-04-18T01:20:48.514Z,8.93
2023-04-18T01:23:17.160Z,8.92
2023-04-18T01:25:45.294Z,8.89
2023-04-18T01:28:14.397Z,8.89
2023-04-18T01:30:42.424Z,8.87
2023-04-18T01:33:10.348Z,8.83
2023-04-18T01:35:38.768Z,8.83
2023-04-18T01:38:06.536Z,8.82
2023-04-18T01:40:34.684Z,8.83
2023-04-18T01:43:02.965Z,8.84
2023-04-18T01:45:30.737Z,8.84
2023-04-18T01:48:25.615Z,8.76
2023-04-18T01:51:03.121Z,8.76
2023-04-18T01:53:32.610Z,8.73
2023-04-18T01:56:05.625Z,8.68
2023-04-18T01:58:33.525Z,8.64
2023-04-18T02:01:01.121Z,8.62
2023-04-18T02:03:29.117Z,8.63
2023-04-18T02:05:57.250Z,8.61
2023-04-18T02:08:28.475Z,8.55
2023-04-18T02:10:55.871Z,8.54
2023-04-18T02:13:23.049Z,8.48
2023-04-18T02:15:50.353Z,8.40
2023-04-18T02:18:18.784Z,8.40
2023-04-18T02:20:46.904Z,8.42
2023-04-18T02:23:14.927Z,8.38
2023-04-18T02:25:43.029Z,8.37
2023-04-18T02:28:11.244Z,8.32
2023-04-18T02:30:39.184Z,8.30
2023-04-18T02:33:07.266Z,8.27
2023-04-18T02:35:36.122Z,8.23
2023-04-18T02:38:04.258Z,8.21
2023-04-18T02:40:32.437Z,8.22
2023-04-18T02:43:00.560Z,8.19
2023-04-18T02:45:31.933Z,8.13
2023-04-18T02:48:02.221Z,8.12
2023-04-18T02:50:53.780Z,8.10
2023-04-18T02:53:24.545Z,8.02
2023-04-18T02:56:33.591Z,8.07
2023-04-18T02:59:16.472Z,8.09
2023-04-18T03:06:10.971Z,8.18
2023-04-18T03:06:31.937Z,8.13
2023-04-18T03:08:39.503Z,8.18
2023-04-18T03:11:08.311Z,8.16
2023-04-18T03:13:36.929Z,8.21
2023-04-18T03:16:05.826Z,8.20
2023-04-18T03:18:34.483Z,8.26
2023-04-18T03:21:03.031Z,8.20
2023-04-18T03:23:33.558Z,8.22
2023-04-18T03:26:05.865Z,8.18
2023-04-18T03:28:37.487Z,8.14
2023-04-18T03:31:06.030Z,8.14
2023-04-18T03:33:36.112Z,8.11
2023-04-18T03:36:09.133Z,8.08
2023-04-18T03:38:38.206Z,8.03
2023-04-18T03:41:06.478Z,8.02
2023-04-18T03:43:36.561Z,8.08
2023-04-18T03:46:05.084Z,7.95
2023-04-18T03:48:36.174Z,7.92
2023-04-18T03:51:08.968Z,7.91
2023-04-18T03:53:38.609Z,7.89
2023-04-18T03:59:57.756Z,7.98
2023-04-18T04:02:26.747Z,7.96
2023-04-18T04:04:54.923Z,7.89
2023-04-18T04:07:29.213Z,7.88
2023-04-18T04:13:42.424Z,7.83
2023-04-18T04:16:15.340Z,7.75
2023-04-18T04:18:50.959Z,7.80
2023-04-18T04:25:21.369Z,7.73
2023-04-18T04:27:58.921Z,7.81
2023-04-18T04:30:33.683Z,7.84
2023-04-18T04:33:02.203Z,7.77
2023-04-18T04:35:29.653Z,7.74
2023-04-18T04:37:57.148Z,7.61
2023-04-18T04:40:30.727Z,7.63
2023-04-18T04:43:15.851Z,7.63
2023-04-18T04:45:45.557Z,7.55
2023-04-18T04:48:12.836Z,7.54
2023-04-18T04:50:41.000Z,7.51
2023-04-18T04:53:08.422Z,7.50
2023-04-18T04:59:06.605Z,7.40
2023-04-18T05:01:37.372Z,7.36
2023-04-18T05:04:04.726Z,7.34
2023-04-18T05:06:32.092Z,7.32
2023-04-18T05:09:01.280Z,7.32
2023-04-18T05:11:28.469Z,7.38
2023-04-18T05:13:55.820Z,7.31
2023-04-18T05:16:29.766Z,7.32
2023-04-18T05:18:57.236Z,7.31
2023-04-18T05:21:26.409Z,7.35
2023-04-18T05:27:47.440Z,7.34
2023-04-18T05:30:15.003Z,7.32
2023-04-18T05:32:42.277Z,7.32
2023-04-18T05:35:09.730Z,7.21
2023-04-18T05:37:37.083Z,7.18
2023-04-18T05:40:05.445Z,7.12
2023-04-18T05:42:32.728Z,7.08
2023-04-18T05:45:00.299Z,7.09
2023-04-18T05:47:28.893Z,7.09
2023-04-18T05:49:56.581Z,7.00
2023-04-18T05:52:24.072Z,7.02
2023-04-18T05:54:51.228Z,7.02
2023-04-18T05:57:19.504Z,7.05
2023-04-18T05:59:46.836Z,7.04
2023-04-18T06:02:14.618Z,7.00
2023-04-18T06:04:42.687Z,6.98
2023-04-18T06:07:10.526Z,6.97
2023-04-18T06:09:37.915Z,6.98
2023-04-18T06:12:05.270Z,6.97
2023-04-18T06:14:32.607Z,7.03
2023-04-18T06:17:00.168Z,7.11
2023-04-18T06:19:27.337Z,7.35
2023-04-18T06:21:54.850Z,7.64
2023-04-18T06:24:22.223Z,7.62
2023-04-18T06:26:49.389Z,7.69
2023-04-18T06:29:18.326Z,7.67
2023-04-18T06:31:47.094Z,7.79
2023-04-18T06:34:14.531Z,7.87
2023-04-18T06:36:44.065Z,7.94
2023-04-18T06:39:11.329Z,8.01
2023-04-18T06:41:39.454Z,8.02
2023-04-18T06:44:06.752Z,8.14
2023-04-18T06:46:34.967Z,8.19
2023-04-18T06:49:06.085Z,8.24
2023-04-18T06:51:34.673Z,8.27
2023-04-18T06:54:02.171Z,8.39
2023-04-18T06:56:30.630Z,8.41
2023-04-18T06:58:58.429Z,8.52
2023-04-18T07:01:25.861Z,8.55
2023-04-18T07:03:53.151Z,8.71
2023-04-18T07:06:20.343Z,8.73
2023-04-18T07:08:47.619Z,8.74
2023-04-18T07:11:16.726Z,8.76
2023-04-18T07:13:56.891Z,8.81
2023-04-18T07:16:26.810Z,8.94
2023-04-18T07:18:53.927Z,9.01
2023-04-18T07:21:21.114Z,9.11
2023-04-18T07:23:48.301Z,9.10
2023-04-18T07:26:15.549Z,9.19
2023-04-18T07:28:43.018Z,9.33
2023-04-18T07:31:11.813Z,9.48
2023-04-18T07:33:39.108Z,9.57
2023-04-18T07:36:06.336Z,9.61
2023-04-18T07:38:35.677Z,9.77
2023-04-18T07:41:03.533Z,9.82
2023-04-18T07:43:30.815Z,9.93
2023-04-18T07:46:03.420Z,10.04
2023-04-18T07:48:30.674Z,10.23
2023-04-18T07:50:57.832Z,10.36
2023-04-18T07:53:24.971Z,10.41
2023-04-18T07:55:52.235Z,10.49
2023-04-18T07:58:20.538Z,10.62
2023-04-18T08:00:47.519Z,10.66
2023-04-18T08:03:14.881Z,10.82
2023-04-18T08:05:42.522Z,10.96
2023-04-18T08:08:10.591Z,11.11
2023-04-18T08:10:37.672Z,11.21
2023-04-18T08:13:05.001Z,11.29
2023-04-18T08:15:33.029Z,11.50
2023-04-18T08:18:04.054Z,11.56
2023-04-18T08:20:31.657Z,11.52
2023-04-18T08:23:07.527Z,11.62
2023-04-18T08:25:37.029Z,11.75
2023-04-18T08:28:04.577Z,11.96
2023-04-18T08:30:32.203Z,12.16
2023-04-18T08:33:00.766Z,12.26
2023-04-18T08:35:38.224Z,12.36
2023-04-18T08:38:05.691Z,12.45
2023-04-18T08:40:33.130Z,12.65
2023-04-18T08:43:02.459Z,12.72
2023-04-18T08:45:29.821Z,12.94
2023-04-18T08:47:59.186Z,13.08
2023-04-18T08:50:27.195Z,13.19
2023-04-18T08:52:55.312Z,13.30
2023-04-18T08:55:25.986Z,13.23
2023-04-18T08:57:56.300Z,13.46
2023-04-18T09:00:23.971Z,13.58
2023-04-18T09:02:56.934Z,13.57
2023-04-18T09:05:25.472Z,13.60
2023-04-18T09:07:57.155Z,13.72
2023-04-18T09:10:29.986Z,13.76
2023-04-18T09:12:58.954Z,13.91
2023-04-18T09:15:27.541Z,14.03
2023-04-18T09:17:56.590Z,14.09
2023-04-18T09:20:35.172Z,14.08
2023-04-18T09:23:04.167Z,14.11
2023-04-18T09:25:35.174Z,14.28
2023-04-18T09:28:02.984Z,14.46
2023-04-18T09:30:40.738Z,14.43
2023-04-18T09:33:12.846Z,14.34
2023-04-18T09:35:40.085Z,14.66
2023-04-18T09:42:12.345Z,15.09
2023-04-18T09:44:59.115Z,15.09
2023-04-18T09:47:30.128Z,15.02
2023-04-18T09:49:59.264Z,15.16
2023-04-18T09:52:26.428Z,15.28
2023-04-18T09:54:56.960Z,14.95
2023-04-18T09:57:27.338Z,15.24
2023-04-18T10:00:24.442Z,15.12
2023-04-18T10:02:58.880Z,15.23
2023-04-18T10:05:34.048Z,15.07
2023-04-18T10:08:01.283Z,15.17
2023-04-18T10:10:28.459Z,15.10
2023-04-18T10:13:01.669Z,15.26
2023-04-18T10:15:29.806Z,15.43
2023-04-18T10:18:05.435Z,15.56
2023-04-18T10:20:35.257Z,15.63
2023-04-18T10:23:21.613Z,15.62
2023-04-18T10:25:49.623Z,15.76
2023-04-18T10:28:17.950Z,15.73
2023-04-18T10:30:45.789Z,15.78
2023-04-18T10:33:31.980Z,15.83
2023-04-18T10:36:21.084Z,16.14
2023-04-18T10:38:49.806Z,16.27
2023-04-18T10:41:18.230Z,16.35
2023-04-18T10:44:04.287Z,16.43
2023-04-18T10:46:32.982Z,16.64
2023-04-18T10:49:18.507Z,16.53
2023-04-18T10:51:49.857Z,16.34
2023-04-18T10:54:24.466Z,16.19
2023-04-18T10:56:52.937Z,16.33
2023-04-18T10:59:22.193Z,16.45
2023-04-18T11:01:50.228Z,16.45
2023-04-18T11:04:18.558Z,16.51
2023-04-18T11:06:50.007Z,16.53
2023-04-18T11:09:18.636Z,16.68
2023-04-18T11:11:45.796Z,16.58
2023-04-18T11:14:15.724Z,16.75
2023-04-18T11:16:56.020Z,16.62
2023-04-18T11:19:25.756Z,16.39
2023-04-18T11:21:52.832Z,16.51
2023-04-18T11:24:24.535Z,16.42
2023-04-18T11:26:56.174Z,16.28
2023-04-18T11:29:23.805Z,16.22
2023-04-18T11:31:53.030Z,16.28
2023-04-18T11:34:22.529Z,16.26
2023-04-18T11:36:51.650Z,16.37
2023-04-18T11:39:24.795Z,16.66
2023-04-18T11:41:52.335Z,16.70
2023-04-18T11:44:30.710Z,16.82
2023-04-18T11:47:03.950Z,16.78
2023-04-18T11:49:33.652Z,16.57
2023-04-18T11:52:04.060Z,16.53
2023-04-18T11:54:41.931Z,16.86
2023-04-18T11:57:27.998Z,16.90
2023-04-18T11:59:58.297Z,16.63
2023-04-18T12:02:27.862Z,16.58
2023-04-18T12:04:57.514Z,16.79
2023-04-18T12:07:41.635Z,16.93
2023-04-18T12:10:29.882Z,17.00
2023-04-18T12:13:10.329Z,16.93
2023-04-18T12:15:47.223Z,17.06
2023-04-18T12:18:18.379Z,17.23
2023-04-18T12:20:54.751Z,17.47
2023-04-18T12:23:32.979Z,17.67
2023-04-18T12:26:04.172Z,17.86
2023-04-18T12:28:36.278Z,17.79
2023-04-18T12:31:06.148Z,17.81
2023-04-18T12:33:34.522Z,17.54
2023-04-18T12:36:03.118Z,17.52
2023-04-18T12:38:35.879Z,17.71
2023-04-18T12:41:04.794Z,17.98
2023-04-18T12:43:32.556Z,18.25
2023-04-18T12:46:00.981Z,18.36
2023-04-18T12:48:29.642Z,18.17
2023-04-18T12:50:59.394Z,17.90
2023-04-18T12:53:26.887Z,17.57
2023-04-18T12:55:53.970Z,17.57
2023-04-18T12:58:21.067Z,17.44
2023-04-18T13:00:49.181Z,17.51
2023-04-18T13:03:16.972Z,17.40
2023-04-18T13:05:45.348Z,17.48
2023-04-18T13:08:22.130Z,17.28
2023-04-18T13:10:57.792Z,17.38
2023-04-18T13:13:29.255Z,17.48
2023-04-18T13:16:04.814Z,17.61
2023-04-18T13:18:32.816Z,17.80
2023-04-18T13:21:00.298Z,17.93
2023-04-18T13:23:27.548Z,17.99
2023-04-18T13:25:54.578Z,17.87
2023-04-18T13:28:21.817Z,17.81
2023-04-18T13:30:48.819Z,17.63
2023-04-18T13:33:17.207Z,17.53
2023-04-18T13:35:44.360Z,17.48
2023-04-18T13:38:11.625Z,17.53
2023-04-18T13:40:39.066Z,17.35
2023-04-18T13:43:11.717Z,17.41
2023-04-18T13:45:38.963Z,17.35
2023-04-18T13:48:06.963Z,17.23
2023-04-18T13:50:34.218Z,17.17
2023-04-18T13:53:01.272Z,17.26
2023-04-18T13:55:28.753Z,17.06
2023-04-18T13:57:56.044Z,17.18
2023-04-18T14:00:23.076Z,17.23
2023-04-18T14:02:53.711Z,17.16
2023-04-18T14:05:21.208Z,17.12
2023-04-18T14:08:15.136Z,17.06
2023-04-18T14:11:07.855Z,17.18
2023-04-18T14:13:39.510Z,17.09
2023-04-18T14:16:16.985Z,17.11
2023-04-18T14:18:49.884Z,17.17
2023-04-18T14:21:19.126Z,17.30
2023-04-18T14:23:56.531Z,17.42
2023-04-18T14:26:24.567Z,17.60
2023-04-18T14:29:15.317Z,17.82
2023-04-18T14:31:57.211Z,18.04
2023-04-18T14:34:25.722Z,18.01
2023-04-18T14:37:10.654Z,18.17
2023-04-18T14:39:43.445Z,17.94
2023-04-18T14:42:13.027Z,18.08
2023-04-18T14:44:43.992Z,18.16
2023-04-18T14:47:12.568Z,18.26
2023-04-18T14:49:42.788Z,18.10
2023-04-18T14:52:10.740Z,18.32
2023-04-18T14:54:47.160Z,18.50
2023-04-18T14:57:14.933Z,18.34
2023-04-18T14:59:43.556Z,18.35
2023-04-18T15:02:12.170Z,18.52
2023-04-18T15:04:40.110Z,18.71
2023-04-18T15:07:07.663Z,18.72
2023-04-18T15:09:38.447Z,18.70
2023-04-18T15:12:06.645Z,18.39
2023-04-18T15:14:35.262Z,18.24
2023-04-18T15:17:06.448Z,18.71
2023-04-18T15:19:34.709Z,18.66
2023-04-18T15:22:06.043Z,18.09
2023-04-18T15:24:33.861Z,18.35
2023-04-18T15:27:04.841Z,18.51
2023-04-18T15:29:33.356Z,18.64
2023-04-18T15:32:03.971Z,18.45
2023-04-18T15:34:35.661Z,18.68
2023-04-18T15:37:09.124Z,18.97
2023-04-18T15:39:36.807Z,18.85
2023-04-18T15:42:05.543Z,18.92
2023-04-18T15:44:33.676Z,18.68
2023-04-18T15:47:04.433Z,18.32
2023-04-18T15:49:35.966Z,18.24
2023-04-18T15:52:04.315Z,17.97
2023-04-18T15:54:35.844Z,18.03
2023-04-18T15:57:03.648Z,18.02
2023-04-18T15:59:31.317Z,17.99
2023-04-18T16:01:58.922Z,17.97
2023-04-18T16:04:26.387Z,17.90
2023-04-18T16:10:29.745Z,17.81
2023-04-18T16:13:05.184Z,17.74
2023-04-18T16:15:41.968Z,17.69
2023-04-18T16:18:09.364Z,17.62
2023-04-18T16:20:37.420Z,17.61
2023-04-18T16:23:05.060Z,17.53
2023-04-18T16:25:33.515Z,17.53
2023-04-18T16:28:01.269Z,17.48
2023-04-18T16:30:28.888Z,17.40
2023-04-18T16:32:56.497Z,17.42
2023-04-18T16:35:24.894Z,17.44
2023-04-18T16:37:57.570Z,17.45
2023-04-18T16:40:31.434Z,17.37
2023-04-18T16:42:59.979Z,17.29
2023-04-18T16:45:27.782Z,17.22
2023-04-18T16:47:55.531Z,17.15
2023-04-18T16:50:23.529Z,17.26
2023-04-18T16:52:51.359Z,17.12
2023-04-18T16:55:19.466Z,17.09
2023-04-18T16:57:47.746Z,16.99
2023-04-18T17:00:17.286Z,17.02
2023-04-18T17:02:45.782Z,16.99
2023-04-18T17:05:20.919Z,17.01
2023-04-18T17:08:10.210Z,17.03
2023-04-18T17:10:40.948Z,16.94
2023-04-18T17:16:18.516Z,16.93
2023-04-18T17:18:45.872Z,16.91
2023-04-18T17:21:24.099Z,16.84
2023-04-18T17:23:58.145Z,16.78
2023-04-18T17:26:27.057Z,16.62
2023-04-18T17:28:54.346Z,16.63
2023-04-18T17:31:21.658Z,16.57
2023-04-18T17:33:51.178Z,16.57
2023-04-18T17:36:22.142Z,16.52
2023-04-18T17:38:58.552Z,16.43
2023-04-18T17:41:26.481Z,16.39
2023-04-18T17:43:53.867Z,16.44
2023-04-18T17:46:34.975Z,16.36
2023-04-18T17:49:07.101Z,16.34
2023-04-18T17:51:34.528Z,16.23
2023-04-18T17:54:02.213Z,16.19
2023-04-18T17:56:31.909Z,16.11
2023-04-18T17:59:02.610Z,16.05
2023-04-18T18:01:30.808Z,15.95
2023-04-18T18:03:59.311Z,15.88
2023-04-18T18:06:28.049Z,15.96
2023-04-18T18:08:55.120Z,15.80
2023-04-18T18:11:25.974Z,15.71
2023-04-18T18:14:07.133Z,15.68
2023-04-18T18:16:34.589Z,15.68
2023-04-18T18:19:01.719Z,15.64
2023-04-18T18:21:29.655Z,15.56
2023-04-18T18:23:56.825Z,15.48
2023-04-18T18:26:24.206Z,15.38
2023-04-18T18:28:58.956Z,15.32
2023-04-18T18:31:39.509Z,15.26
2023-04-18T18:34:06.860Z,15.17
2023-04-18T18:36:34.132Z,15.10
2023-04-18T18:39:01.155Z,15.04
2023-04-18T18:41:28.277Z,14.99
2023-04-18T18:43:56.731Z,14.88
2023-04-18T18:46:23.677Z,14.77
2023-04-18T18:48:52.571Z,14.69
2023-04-18T18:51:21.403Z,14.61
2023-04-18T18:53:48.881Z,14.59
2023-04-18T18:56:19.524Z,14.52
2023-04-18T18:58:49.550Z,14.52
2023-04-18T19:01:16.569Z,14.47
2023-04-18T19:03:44.018Z,14.37
2023-04-18T19:06:11.254Z,14.28
2023-04-18T19:08:40.535Z,14.25
2023-04-18T19:11:08.646Z,14.24
2023-04-18T19:13:35.788Z,14.16
2023-04-18T19:16:03.879Z,13.93
2023-04-18T19:18:31.897Z,13.86
2023-04-18T19:20:59.053Z,13.85
2023-04-18T19:23:29.184Z,13.74
2023-04-18T19:25:58.301Z,13.64
2023-04-18T19:28:26.285Z,13.66
2023-04-18T19:30:53.594Z,13.62
2023-04-18T19:33:21.504Z,13.62
2023-04-18T19:35:48.486Z,13.59
2023-04-18T19:38:15.705Z,13.64
2023-04-18T19:40:42.813Z,13.64
2023-04-18T19:43:10.804Z,13.58
2023-04-18T19:45:38.764Z,13.49
2023-04-18T19:48:06.014Z,13.57
2023-04-18T19:50:34.597Z,13.39
2023-04-18T19:53:02.002Z,13.25
2023-04-18T19:55:28.962Z,13.08
2023-04-18T19:57:58.769Z,12.94
2023-04-18T20:00:26.412Z,12.91
2023-04-18T20:02:54.758Z,12.93
2023-04-18T20:05:22.111Z,12.89
2023-04-18T20:07:49.391Z,12.85
2023-04-18T20:10:16.493Z,12.83
2023-04-18T20:12:43.939Z,12.77
2023-04-18T20:15:11.099Z,12.67
2023-04-18T20:17:42.702Z,12.63
2023-04-18T20:20:11.473Z,12.63
2023-04-18T20:22:40.554Z,12.62
2023-04-18T20:25:10.767Z,12.61
2023-04-18T20:27:38.446Z,12.55
2023-04-18T20:30:06.017Z,12.54
2023-04-18T20:32:35.735Z,12.40
2023-04-18T20:35:03.244Z,12.37
2023-04-18T20:37:31.244Z,12.32
2023-04-18T20:39:59.053Z,12.26
2023-04-18T20:42:26.786Z,12.29
2023-04-18T20:44:55.029Z,12.16
2023-04-18T20:47:25.261Z,12.09
2023-04-18T20:50:03.781Z,12.01
2023-04-18T20:52:31.405Z,11.91
2023-04-18T20:55:03.591Z,11.80
2023-04-18T20:57:43.993Z,11.66
2023-04-18T21:00:14.502Z,11.61
2023-04-18T21:02:42.774Z,11.48
2023-04-18T21:05:16.999Z,11.46
2023-04-18T21:07:45.856Z,11.38
2023-04-18T21:10:18.953Z,11.28
2023-04-18T21:12:53.507Z,11.17
2023-04-18T21:15:25.171Z,11.18
2023-04-18T21:17:53.012Z,11.12
2023-04-18T21:20:20.596Z,11.08
2023-04-18T21:22:58.090Z,11.10
2023-04-18T21:25:29.433Z,11.11
2023-04-18T21:27:57.153Z,10.94
2023-04-18T21:30:25.340Z,10.97
2023-04-18T21:32:52.879Z,10.94
2023-04-18T21:35:21.916Z,10.87
2023-04-18T21:37:50.869Z,10.90
2023-04-18T21:40:18.787Z,10.88
2023-04-18T21:42:47.759Z,10.83
2023-04-18T21:45:16.735Z,10.82
2023-04-18T21:47:45.665Z,10.80
2023-04-18T21:50:14.323Z,10.78
2023-04-18T21:52:48.723Z,10.86
2023-04-18T21:55:16.940Z,10.84
2023-04-18T21:57:44.452Z,10.85
2023-04-18T22:00:13.087Z,10.85
2023-04-18T22:02:43.039Z,10.82
2023-04-18T22:05:13.188Z,10.87
2023-04-18T22:07:54.406Z,10.83
2023-04-18T22:10:25.312Z,10.85
2023-04-18T22:12:55.280Z,10.86
2023-04-18T22:15:22.914Z,10.81
2023-04-18T22:17:51.132Z,10.74
2023-04-18T22:20:19.863Z,10.59
2023-04-18T22:22:47.065Z,10.40
2023-04-18T22:25:14.698Z,10.31
2023-04-18T22:27:43.385Z,10.30
2023-04-18T22:30:10.652Z,10.31
2023-04-18T22:32:38.106Z,10.25
2023-04-18T22:35:05.600Z,10.16
2023-04-18T22:37:32.852Z,10.17
2023-04-18T22:39:59.892Z,10.04
2023-04-18T22:42:27.576Z,9.92
2023-04-18T22:44:55.763Z,9.85
2023-04-18T22:47:22.982Z,9.75
2023-04-18T22:49:50.075Z,9.75
2023-04-18T22:52:17.255Z,9.71
2023-04-18T22:54:44.653Z,9.71
2023-04-18T22:57:11.932Z,9.59
2023-04-18T22:59:39.304Z,9.49
2023-04-18T23:02:06.538Z,9.49
2023-04-18T23:04:34.585Z,9.42
2023-04-18T23:07:02.467Z,9.34
2023-04-18T23:09:31.508Z,9.34
2023-04-18T23:12:02.841Z,9.25
2023-04-18T23:14:30.188Z,9.26
2023-04-18T23:16:58.192Z,9.23
2023-04-18T23:19:29.889Z,9.21
2023-04-18T23:21:57.511Z,9.18
2023-04-18T23:24:24.552Z,9.18
2023-04-18T23:26:51.853Z,9.14
2023-04-18T23:29:19.082Z,9.07
2023-04-18T23:31:46.197Z,9.06
2023-04-18T23:34:13.743Z,8.99
2023-04-18T23:36:41.232Z,8.97
2023-04-18T23:39:08.879Z,8.87
2023-04-18T23:41:36.070Z,8.92
2023-04-18T23:44:03.188Z,8.95
2023-04-18T23:46:30.430Z,8.93
2023-04-18T23:48:58.453Z,8.91
2023-04-18T23:51:26.483Z,8.80
2023-04-18T23:53:53.464Z,8.79
2023-04-18T23:56:20.723Z,8.69
2023-04-18T23:58:47.902Z,8.48
